Latest Weather Observations for Holsworthy

IDN60901

Issued at 11:51 pm EST Friday 29 April 2016 (issued every 10 minutes, with the page automatically refreshed every 10 minutes)

About weather observations | Map of Sydney area stations | Latest observations for Sydney area | Other Formats
Station Details ID: 066161 Name: HOLSWORTHY AERODROME AWS Lat: -33.99 Lon: 150.95 Height: 68.16 m
Data from the previous 72 hours. | See also: Recent months at Holsworthy
Date/Time
EST
Tmp

°C
App
Tmp
°C
Dew
Point
°C
Rel
Hum
%
Delta-T

°C
Wind Press
QNH
hPa
Press
MSL
hPa
Rain
since
9 am
mm
Dir
 
Spd
km/h
Gust
km/h
Spd
kts
Gust
kts
29/11:30pm 17.4 18.3 15.2 87 1.3 S 4 7 2 4 1018.7 1018.5 0.0
29/11:00pm 17.9 18.5 15.9 88 1.2 ESE 7 9 4 5 1018.7 1018.5 0.0
29/10:30pm 18.2 19.1 16.2 88 1.2 SE 6 7 3 4 1019.1 1018.9 0.0
29/10:00pm 18.5 19.4 16.5 88 1.2 ESE 7 9 4 5 1019.2 1019.0 0.0
29/09:30pm 18.5 19.6 16.5 88 1.2 SE 6 7 3 4 1019.3 1019.1 0.0
29/09:00pm 18.4 19.1 16.0 86 1.4 SE 7 9 4 5 1019.4 1019.2 0.0
29/08:30pm 19.0 19.7 16.2 84 1.7 SE 7 9 4 5 1019.2 1019.0 0.0
29/08:00pm 19.6 20.8 16.8 84 1.7 ESE 6 7 3 4 1019.0 1018.8 0.0
29/07:30pm 19.8 20.9 17.0 84 1.7 ESE 7 7 4 4 1019.1 1018.9 0.0
29/07:00pm 20.1 21.6 16.7 81 2.1 ESE 4 7 2 4 1019.0 1018.8 0.0
29/06:30pm 20.8 21.8 16.8 78 2.4 E 7 9 4 5 1018.8 1018.6 0.0
29/06:00pm 21.0 21.2 16.8 77 2.6 ENE 11 13 6 7 1018.6 1018.4 0.0
29/05:30pm 21.5 22.1 16.7 74 2.9 ENE 9 11 5 6 1018.5 1018.3 0.0
29/05:00pm 22.1 22.6 16.6 71 3.3 E 9 13 5 7 1018.2 1018.0 0.0
29/04:30pm 22.6 23.0 16.4 68 3.8 E 9 13 5 7 1018.2 1018.0 0.0
29/04:00pm 23.1 23.8 16.2 65 4.2 E 7 9 4 5 1018.2 1018.0 0.0
29/03:30pm 23.4 23.8 15.2 60 4.9 ESE 7 9 4 5 1018.2 1018.0 0.0
29/03:00pm 23.1 23.0 14.9 60 4.9 ESE 9 11 5 6 1018.2 1018.0 0.0
29/02:30pm 23.6 23.7 14.0 55 5.6 NE 6 9 3 5 1018.6 1018.4 0.0
29/02:00pm 23.3 23.4 14.0 56 5.5 NE 6 7 3 4 1018.7 1018.5 0.0
29/01:30pm 23.5 23.3 13.7 54 5.7 N 7 11 4 6 1018.8 1018.6 0.0
29/01:00pm 23.4 23.0 13.0 52 6.0 NNW 7 9 4 5 1019.3 1019.1 0.0
29/12:30pm 23.2 22.8 14.2 57 5.3 NW 9 13 5 7 1020.1 1019.9 0.0
29/12:00pm 22.5 22.4 13.8 58 5.1 NNW 7 11 4 6 1020.7 1020.5 0.0
29/11:30am 21.6 21.7 14.5 64 4.2 NW 7 11 4 6 1021.3 1021.1 0.0
29/11:00am 20.9 21.3 14.8 68 3.6 NNW 6 7 3 4 1021.4 1021.2 0.0
29/10:30am 20.8 21.4 15.4 71 3.2 NNW 6 9 3 5 1022.0 1021.9 0.0
29/10:00am 20.3 20.6 15.1 72 3.1 NNW 7 11 4 6 1022.2 1022.1 0.0
29/09:30am 18.5 19.1 15.2 81 1.9 WNW 6 9 3 5 1022.7 1022.6 0.0
29/09:00am 16.3 17.3 14.3 88 1.1 WNW 2 7 1 4 1023.0 1022.9 0.0
29/08:30am 15.7 17.2 14.6 93 0.6 CALM 0 0 0 0 1022.9 1022.8 0.0
29/08:00am 14.2 15.2 13.2 94 0.6 CALM 0 0 0 0 1023.1 1023.0 0.0
29/07:30am 13.8 14.7 13.0 95 0.4 CALM 0 0 0 0 1022.9 1022.8 0.0
29/07:00am 12.2 12.7 11.6 96 0.3 CALM 0 0 0 0 1022.4 1022.3 0.0
29/06:30am 11.6 11.8 10.7 94 0.5 CALM 0 0 0 0 1022.2 1022.1 0.0
29/06:00am 12.3 12.5 11.7 96 0.3 SW 2 6 1 3 1022.3 1022.2 0.0
29/05:30am 12.0 11.3 11.4 96 0.3 SW 6 7 3 4 1022.1 1022.0 0.0
29/05:00am 11.6 11.8 10.5 93 0.6 CALM 0 0 0 0 1022.0 1021.9 0.0
29/04:30am 12.8 13.4 12.0 95 0.4 CALM 0 0 0 0 1022.0 1021.9 0.0
29/04:00am 12.9 13.5 12.0 94 0.5 CALM 0 0 0 0 1022.0 1021.9 0.0
29/03:30am 13.5 14.3 12.6 94 0.5 CALM 0 0 0 0 1021.9 1021.8 0.0
29/03:00am 13.7 14.5 12.6 93 0.6 CALM 0 0 0 0 1021.9 1021.8 0.0
29/02:30am 14.1 15.0 12.8 92 0.7 CALM 0 0 0 0 1022.1 1022.0 0.0
29/02:00am 14.3 15.2 13.0 92 0.7 CALM 0 0 0 0 1022.1 1022.0 0.0
29/01:30am 14.8 15.9 13.5 92 0.7 CALM 0 0 0 0 1022.4 1022.3 0.0
29/01:00am 15.2 16.5 14.1 93 0.6 CALM 0 0 0 0 1022.6 1022.5 0.0
29/12:30am 15.0 16.3 14.0 94 0.6 CALM 0 0 0 0 1022.9 1022.8 0.0
29/12:00am 15.3 16.2 14.0 92 0.7 SSE 2 6 1 3 1022.8 1022.7 0.0
 
Date/Time
EST
Tmp

°C
App
Tmp
°C
Dew
Point
°C
Rel
Hum
%
Delta-T

°C
Wind Press
QNH
hPa
Press
MSL
hPa
Rain
since
9 am
mm
Dir
 
Spd
km/h
Gust
km/h
Spd
kts
Gust
kts
28/11:30pm 15.8 15.9 14.5 92 0.7 SE 7 9 4 5 1022.9 1022.8 0.0
28/11:00pm 16.4 16.4 15.1 92 0.8 SE 9 11 5 6 1023.0 1022.9 0.0
28/10:30pm 16.3 17.9 15.0 92 0.8 CALM 0 0 0 0 1023.3 1023.2 0.0
28/10:00pm 16.4 18.0 14.8 90 0.9 CALM 0 0 0 0 1023.3 1023.2 0.0
28/09:30pm 17.2 18.1 15.2 88 1.2 E 4 6 2 3 1023.1 1023.0 0.0
28/09:00pm 18.3 19.1 15.9 86 1.4 E 6 7 3 4 1022.8 1022.7 0.0
28/08:30pm 19.3 20.4 16.5 84 1.7 E 6 7 3 4 1022.6 1022.5 0.0
28/08:00pm 19.3 19.8 16.5 84 1.7 ENE 9 11 5 6 1022.4 1022.3 0.0
28/07:30pm 19.7 20.6 16.5 82 1.9 ENE 7 11 4 6 1022.4 1022.3 0.0
28/07:00pm 20.1 20.6 16.5 80 2.2 E 9 13 5 7 1022.3 1022.2 0.0
28/06:30pm 20.4 20.5 16.6 79 2.3 E 11 17 6 9 1022.3 1022.2 0.0
28/06:00pm 20.9 21.1 16.7 77 2.5 E 11 13 6 7 1022.0 1021.9 0.0
28/05:30pm 21.9 22.4 16.6 72 3.2 ESE 9 13 5 7 1021.7 1021.6 0.0
28/05:00pm 23.2 23.7 16.5 66 4.1 E 9 13 5 7 1021.3 1021.1 0.0
28/04:30pm 24.3 24.2 16.0 60 5.1 ESE 11 17 6 9 1021.3 1021.1 0.0
28/04:00pm 25.1 24.1 14.6 52 6.3 ESE 13 17 7 9 1021.3 1021.1 0.0
28/03:30pm 25.7 25.2 13.9 48 7.0 E 9 11 5 6 1021.3 1021.1 0.0
28/03:00pm 25.6 24.9 13.1 46 7.3 NE 9 13 5 7 1021.3 1021.1 0.0
28/02:30pm 25.6 25.7 14.4 50 6.7 NE 7 13 4 7 1021.4 1021.2 0.0
28/02:00pm 24.7 24.6 13.9 51 6.4 N 7 13 4 7 1021.6 1021.5 0.0
28/01:30pm 24.2 24.0 14.6 55 5.7 NNE 9 11 5 6 1021.8 1021.7 0.0
28/01:00pm 23.2 23.4 14.2 57 5.3 N 6 11 3 6 1022.3 1022.2 0.0
28/12:30pm 22.6 23.4 14.7 61 4.7 N 4 9 2 5 1022.7 1022.6 0.0
28/12:00pm 21.4 21.2 14.6 65 4.0 NNE 9 13 5 7 1023.1 1023.0 0.0
28/11:30am 20.6 21.0 15.4 72 3.1 N 7 13 4 7 1023.8 1023.7 0.0
28/11:00am 19.2 19.5 15.1 77 2.4 W 7 11 4 6 1024.3 1024.2 0.0
28/10:30am 18.0 18.3 15.1 83 1.7 WNW 7 11 4 6 1024.6 1024.5 0.0
28/10:00am 16.8 17.0 14.6 87 1.3 WNW 7 9 4 5 1024.8 1024.7 0.0
28/09:30am 15.9 15.9 14.3 90 0.9 WNW 7 9 4 5 1025.1 1025.0 0.0
28/09:00am 15.4 15.5 14.4 94 0.6 WNW 7 9 4 5 1025.2 1025.1 0.0
28/08:30am 14.7 14.6 13.9 95 0.5 WSW 7 9 4 5 1025.1 1025.0 0.0
28/08:23am 14.6 14.1 13.8 95 0.4 WSW 9 11 5 6 1025.1 1025.0 0.0
28/08:00am 13.7 13.0 13.1 96 0.3 W 9 11 5 6 1025.0 1024.9 0.0
28/07:30am 12.9 12.5 12.4 97 0.3 WSW 6 7 3 4 1024.5 1024.4 0.0
28/07:16am 12.5 12.0 12.0 97 0.3 WSW 6 7 3 4 1024.4 1024.3 0.0
28/07:00am 12.1 11.8 11.5 96 0.3 WSW 4 7 2 4 1024.2 1024.1 0.0
28/06:30am 12.1 12.6 11.5 96 0.3 CALM 0 0 0 0 1023.9 1023.8 0.0
28/06:00am 12.5 13.1 11.9 96 0.3 CALM 0 0 0 0 1023.7 1023.6 0.0
28/05:55am 12.5 13.1 11.9 96 0.3 CALM 0 0 0 0 1023.7 1023.6 0.0
28/05:40am 12.1 12.5 11.3 95 0.4 CALM 0 0 0 0 1023.7 1023.6 0.0
28/05:30am 12.0 12.4 11.2 95 0.4 CALM 0 0 0 0 1023.7 1023.6 0.0
28/05:00am 12.5 11.9 11.7 95 0.4 SW 6 9 3 5 1023.6 1023.5 0.0
28/04:30am 13.3 12.8 12.7 96 0.3 SW 7 9 4 5 1023.4 1023.3 0.0
28/04:00am 12.2 11.5 11.3 94 0.5 WSW 6 7 3 4 1023.3 1023.2 0.0
28/03:30am 12.3 12.7 11.2 93 0.6 CALM 0 0 0 0 1023.0 1022.9 0.0
28/03:00am 13.7 14.6 12.8 94 0.5 CALM 0 0 0 0 1022.9 1022.8 0.0
28/02:30am 13.6 14.4 12.5 93 0.6 CALM 0 0 0 0 1023.3 1023.2 0.0
28/02:00am 14.1 15.1 13.1 94 0.5 CALM 0 0 0 0 1023.5 1023.4 0.0
28/01:30am 14.1 13.9 13.0 93 0.6 SW 6 6 3 3 1023.6 1023.5 0.0
28/01:00am 14.5 14.4 13.2 92 0.7 SW 6 6 3 3 1023.9 1023.8 0.0
28/12:30am 14.8 16.0 13.7 93 0.6 CALM 0 0 0 0 1024.1 1024.0 0.0
28/12:22am 14.7 15.8 13.6 93 0.6 CALM 0 0 0 0 1024.2 1024.1 0.0
28/12:00am 15.1 16.4 14.0 93 0.6 CALM 0 0 0 0 1024.2 1024.1 0.0
 
Date/Time
EST
Tmp

°C
App
Tmp
°C
Dew
Point
°C
Rel
Hum
%
Delta-T

°C
Wind Press
QNH
hPa
Press
MSL
hPa
Rain
since
9 am
mm
Dir
 
Spd
km/h
Gust
km/h
Spd
kts
Gust
kts
27/11:55pm 15.0 16.2 13.9 93 0.6 CALM 0 0 0 0 1024.3 1024.2 0.0
27/11:30pm 14.9 16.1 13.8 93 0.6 CALM 0 0 0 0 1024.5 1024.4 0.0
27/11:00pm 15.1 16.3 13.8 92 0.7 CALM 0 0 0 0 1024.7 1024.6 0.0
27/10:30pm 15.5 16.8 14.0 91 0.8 CALM 0 0 0 0 1025.1 1025.0 0.0
27/10:00pm 15.8 17.2 14.3 91 0.9 CALM 0 0 0 0 1025.1 1025.0 0.0
27/09:30pm 16.5 17.9 14.3 87 1.3 CALM 0 0 0 0 1025.1 1025.0 0.0
27/09:00pm 17.8 18.3 15.6 87 1.3 N 7 9 4 5 1025.0 1024.9 0.0
27/08:30pm 17.8 18.2 15.4 86 1.4 N 7 13 4 7 1025.0 1024.9 0.0
27/08:00pm 18.1 18.8 15.5 85 1.5 NE 6 7 3 4 1024.9 1024.8 0.0
27/07:30pm 18.7 19.3 15.8 83 1.7 ENE 7 9 4 5 1024.6 1024.5 0.0
27/07:00pm 18.9 19.0 15.4 80 2.1 ENE 9 13 5 7 1024.3 1024.2 0.0
27/06:30pm 19.4 19.0 15.3 77 2.4 ENE 11 20 6 11 1024.1 1024.0 0.0
27/06:00pm 19.7 19.2 14.9 74 2.8 ENE 11 15 6 8 1023.8 1023.7 0.0
27/05:30pm 20.3 19.1 15.1 72 3.1 ENE 15 22 8 12 1023.5 1023.4 0.0
27/05:00pm 21.1 19.7 14.5 66 3.9 NE 15 20 8 11 1023.4 1023.3 0.0
27/04:30pm 22.0 19.8 14.4 62 4.5 NE 19 30 10 16 1023.3 1023.2 0.0
27/04:00pm 22.6 20.7 14.2 59 4.9 ENE 17 30 9 16 1023.2 1023.1 0.0
27/03:30pm 23.0 21.1 14.3 58 5.1 ENE 17 26 9 14 1023.3 1023.2 0.0
27/03:00pm 24.0 22.7 13.8 53 6.0 NE 13 24 7 13 1023.3 1023.2 0.0
27/02:30pm 24.0 22.5 13.2 50 6.3 NE 13 19 7 10 1023.2 1023.1 0.0
27/02:00pm 23.6 21.8 12.0 48 6.6 NNE 13 20 7 11 1023.4 1023.3 0.0
27/01:30pm 23.9 22.4 11.9 47 6.8 NE 11 17 6 9 1023.6 1023.5 0.0
27/01:00pm 25.1 23.2 13.0 47 7.0 N 15 24 8 13 1024.0 1023.9 0.0
27/12:30pm 24.0 21.6 12.6 49 6.6 N 17 26 9 14 1024.6 1024.5 0.0
27/12:00pm 22.6 19.2 10.7 47 6.5 N 19 26 10 14 1025.4 1025.3 0.0
27/11:30am 22.5 20.3 10.9 48 6.4 N 13 22 7 12 1026.0 1025.9 0.0
27/11:00am 22.0 20.5 12.0 53 5.6 NNW 11 17 6 9 1026.5 1026.4 0.0
27/10:30am 20.7 19.5 12.7 60 4.5 NNW 11 17 6 9 1027.0 1026.9 0.0
27/10:00am 20.0 19.9 13.9 68 3.5 NW 7 13 4 7 1027.5 1027.4 0.0
27/09:30am 18.7 18.1 13.6 72 2.9 W 9 11 5 6 1027.9 1027.8 0.0
27/09:00am 17.2 17.2 14.1 82 1.8 W 7 11 4 6 1028.1 1028.0 0.0
27/08:30am 15.5 15.5 13.5 88 1.1 NW 6 9 3 5 1028.3 1028.2 0.0
27/08:00am 13.8 13.3 12.7 93 0.6 WSW 7 9 4 5 1027.9 1027.8 0.0
27/07:30am 12.3 11.7 11.7 96 0.3 WSW 6 7 3 4 1027.5 1027.4 0.0
27/07:00am 10.4 9.0 9.6 95 0.4 WSW 7 9 4 5 1027.3 1027.2 0.0
27/06:30am 10.5 9.3 9.7 95 0.4 W 6 6 3 3 1027.2 1027.1 0.0
27/06:00am 11.5 11.7 10.7 95 0.4 CALM 0 0 0 0 1027.0 1026.9 0.0
27/05:30am 11.3 11.5 10.5 95 0.4 CALM 0 0 0 0 1026.8 1026.7 0.0
27/05:00am 11.7 12.0 10.9 95 0.4 CALM 0 0 0 0 1026.8 1026.7 0.0
27/04:30am 11.9 12.3 11.1 95 0.4 CALM 0 0 0 0 1026.7 1026.6 0.0
27/04:00am 12.1 12.4 11.0 93 0.6 CALM 0 0 0 0 1026.8 1026.7 0.0
27/03:30am 13.0 13.6 11.9 93 0.6 CALM 0 0 0 0 1026.9 1026.8 0.0
27/03:00am 12.7 12.4 11.3 91 0.7 SW 4 7 2 4 1026.9 1026.8 0.0
27/02:30am 13.8 14.6 12.5 92 0.7 CALM 0 0 0 0 1027.1 1027.0 0.0
27/02:00am 14.4 15.5 13.4 94 0.6 CALM 0 0 0 0 1027.4 1027.3 0.0
27/01:30am 13.8 14.6 12.5 92 0.7 CALM 0 0 0 0 1027.7 1027.6 0.0
27/01:00am 14.2 15.1 12.9 92 0.7 CALM 0 0 0 0 1027.9 1027.8 0.0
27/12:30am 14.6 15.2 13.1 91 0.8 S 2 6 1 3 1028.1 1028.0 0.0
27/12:00am 15.1 15.1 13.5 90 0.9 SSW 6 7 3 4 1028.0 1027.9 0.0

Latest Capital City Observations: Canberra | Sydney | Melbourne | Brisbane | Adelaide | Perth | Hobart | Darwin

Other Formats:

Comma delimited format used in spreadsheet applications
http://www.bom.gov.au/fwo/IDN60901/IDN60901.95761.axf

JavaScript Object Notation format (JSON) in row-major order
http://www.bom.gov.au/fwo/IDN60901/IDN60901.95761.json